Time;durP1;ratioP1;P1;durP2;ratioP2;P2;SDS_P1;SDS_P2;PMS_P1;PMS_P2;Temp;Humidity;BMP_temperature;BMP_pressure;BME280_temperature;BME280_humidity;BME280_pressure;Samples;Min_cycle;Max_cycle;Signal;HPM_P1;HPM_P2
2021/12/08 00:01:19;;;;;;;;;1.25;0.00;;;;;8.36;67.16;99322.13;5025518;28;45363;-65
2021/12/08 00:03:45;;;;;;;;;2.00;0.75;;;;;8.34;67.32;99321.38;5028112;28;45391;-67
2021/12/08 00:06:11;;;;;;;;;0.00;0.00;;;;;8.33;67.45;99334.59;5028910;28;45426;-65
2021/12/08 00:08:38;;;;;;;;;1.00;0.00;;;;;8.30;67.14;99325.19;5026081;28;45678;-66
2021/12/08 00:14:00;;;;;;;;;1.25;0.00;;;;;8.24;67.20;99333.47;5003438;28;45449;-63
2021/12/08 00:16:25;;;;;;;;;2.00;0.00;;;;;8.25;67.12;99326.44;5028967;28;45419;-62
2021/12/08 00:18:51;;;;;;;;;0.00;0.00;;;;;8.25;67.20;99327.28;5027337;28;45356;-63
2021/12/08 00:21:18;;;;;;;;;0.00;0.00;;;;;8.23;67.47;99318.69;5031038;28;46145;-64
2021/12/08 00:23:45;;;;;;;;;1.00;1.00;;;;;8.22;67.61;99322.28;5026280;28;45464;-65
2021/12/08 00:26:11;;;;;;;;;2.50;0.00;;;;;8.22;67.59;99330.16;5031049;28;45418;-65
2021/12/08 00:28:36;;;;;;;;;2.00;0.00;;;;;8.20;67.83;99321.53;5029456;28;45355;-63
2021/12/08 00:31:05;;;;;;;;;0.00;0.00;;;;;8.18;67.61;99331.28;5032126;28;45298;-63
2021/12/08 00:33:31;;;;;;;;;0.50;0.25;;;;;8.17;67.65;99316.50;5030393;28;45374;-64
2021/12/08 00:35:59;;;;;;;;;1.75;0.00;;;;;8.18;67.73;99319.97;5030089;28;45368;-63
2021/12/08 00:38:26;;;;;;;;;1.50;1.00;;;;;8.16;67.88;99320.09;5032154;28;45477;-64
2021/12/08 00:40:53;;;;;;;;;2.00;0.00;;;;;8.14;67.56;99316.75;5031654;28;46073;-64
2021/12/08 00:43:20;;;;;;;;;1.25;0.00;;;;;8.14;67.82;99324.63;5030006;28;45509;-63
2021/12/08 00:45:46;;;;;;;;;3.00;1.00;;;;;8.15;68.04;99333.31;5034241;28;45429;-63
2021/12/08 00:48:12;;;;;;;;;0.00;0.00;;;;;8.14;67.58;99340.34;5029115;28;45702;-65
2021/12/08 00:50:39;;;;;;;;;1.75;0.00;;;;;8.11;67.96;99340.53;5033349;28;45466;-63
2021/12/08 00:53:04;;;;;;;;;1.75;0.00;;;;;8.10;67.64;99355.44;5031389;28;45442;-64
2021/12/08 00:55:31;;;;;;;;;1.25;1.00;;;;;8.10;67.73;99349.38;5029519;28;45379;-64
2021/12/08 00:57:56;;;;;;;;;0.00;0.00;;;;;8.08;67.81;99356.50;5029419;28;45393;-64
2021/12/08 01:00:32;;;;;;;;;1.50;0.00;;;;;8.08;67.73;99359.13;5030583;28;45351;-63
2021/12/08 01:02:59;;;;;;;;;0.00;0.00;;;;;8.09;67.55;99359.03;5026099;28;45518;-62
2021/12/08 01:05:38;;;;;;;;;2.25;0.00;;;;;8.12;67.54;99360.59;5029203;28;45719;-62
2021/12/08 01:08:05;;;;;;;;;0.00;0.00;;;;;8.14;67.65;99356.09;5026941;28;45537;-62
2021/12/08 01:10:32;;;;;;;;;1.50;0.00;;;;;8.16;67.36;99353.34;5020085;28;45537;-62
2021/12/08 01:12:58;;;;;;;;;0.00;0.00;;;;;8.14;67.57;99353.47;5029731;28;45438;-61
2021/12/08 01:15:26;;;;;;;;;0.00;0.00;;;;;8.09;67.18;99345.91;5030715;28;45699;-62
2021/12/08 01:17:52;;;;;;;;;2.00;0.00;;;;;8.04;67.11;99345.38;5028661;28;45580;-62
2021/12/08 01:20:18;;;;;;;;;0.50;0.00;;;;;7.98;67.14;99343.22;5025428;28;46299;-62
2021/12/08 01:22:45;;;;;;;;;1.25;0.00;;;;;7.91;67.31;99339.34;5029842;28;45473;-62
2021/12/08 01:25:11;;;;;;;;;0.00;0.00;;;;;7.89;67.16;99356.97;5034345;28;45311;-62
2021/12/08 01:27:36;;;;;;;;;0.00;0.00;;;;;7.85;67.17;99337.16;5031794;28;45502;-61
2021/12/08 01:30:06;;;;;;;;;0.75;0.00;;;;;7.80;67.11;99326.16;5028886;28;46579;-62
2021/12/08 01:32:31;;;;;;;;;0.00;0.00;;;;;7.79;67.10;99311.38;5031246;28;45356;-62
2021/12/08 01:34:57;;;;;;;;;3.50;0.00;;;;;7.74;67.11;99309.09;5028019;28;45351;-62
2021/12/08 01:37:23;;;;;;;;;1.25;0.00;;;;;7.71;67.31;99308.44;5031403;28;45352;-62
2021/12/08 01:39:48;;;;;;;;;2.00;0.00;;;;;7.68;67.35;99313.94;5032320;28;46091;-62
2021/12/08 01:42:26;;;;;;;;;0.00;0.00;;;;;7.65;67.11;99311.50;5032283;28;45336;-62
2021/12/08 01:47:36;;;;;;;;;1.00;0.00;;;;;7.59;67.49;99331.13;5028645;28;45363;-61
2021/12/08 01:50:04;;;;;;;;;0.00;0.00;;;;;7.57;67.32;99338.22;5029408;28;45284;-61
2021/12/08 01:52:29;;;;;;;;;0.75;0.00;;;;;7.53;67.39;99352.50;5030397;28;45232;-61
2021/12/08 01:54:55;;;;;;;;;1.75;0.00;;;;;7.51;67.58;99370.97;5033499;28;45245;-62
2021/12/08 01:57:20;;;;;;;;;0.00;0.00;;;;;7.50;67.58;99374.53;5031390;28;45412;-62
2021/12/08 01:59:46;;;;;;;;;0.00;0.00;;;;;7.48;67.78;99373.78;5031417;28;45279;-62
2021/12/08 02:02:13;;;;;;;;;1.25;0.00;;;;;7.48;67.67;99375.56;5030753;28;45166;-62
2021/12/08 02:04:38;;;;;;;;;0.00;0.00;;;;;7.47;67.70;99368.63;5018982;28;45470;-61
2021/12/08 02:07:04;;;;;;;;;1.75;0.25;;;;;7.46;67.87;99382.69;5033073;28;45422;-62
2021/12/08 02:09:30;;;;;;;;;0.00;0.00;;;;;7.46;67.83;99367.81;5033205;28;45873;-62
2021/12/08 02:11:56;;;;;;;;;0.25;0.00;;;;;7.44;67.92;99372.31;5030770;28;45376;-62
2021/12/08 02:14:23;;;;;;;;;3.50;1.00;;;;;7.44;67.90;99377.56;5021497;28;45509;-62
2021/12/08 02:16:51;;;;;;;;;0.00;0.00;;;;;7.42;67.88;99373.34;5021296;28;45315;-62
2021/12/08 02:19:17;;;;;;;;;2.50;0.00;;;;;7.40;67.80;99385.72;5017187;28;45476;-62
2021/12/08 02:21:44;;;;;;;;;0.00;0.00;;;;;7.39;68.09;99402.38;5012901;28;45390;-62
2021/12/08 02:24:14;;;;;;;;;1.75;0.50;;;;;7.37;68.18;99407.72;5015680;28;45351;-62
2021/12/08 02:26:42;;;;;;;;;5.00;0.25;;;;;7.36;68.65;99398.19;5021583;28;45531;-62
2021/12/08 02:29:20;;;;;;;;;1.25;0.00;;;;;7.32;68.31;99396.72;5021306;28;46154;-62
2021/12/08 02:32:02;;;;;;;;;0.00;0.00;;;;;7.32;68.16;99393.25;5021085;28;45491;-62
2021/12/08 02:48:08;;;;;;;;;2.25;0.50;;;;;7.19;68.68;99395.88;5001127;28;45337;-62
2021/12/08 02:50:38;;;;;;;;;1.50;0.00;;;;;7.18;68.86;99402.03;5001182;28;45285;-61
2021/12/08 02:53:06;;;;;;;;;1.00;0.00;;;;;7.14;68.58;99398.78;5000418;28;45518;-61
2021/12/08 02:55:32;;;;;;;;;0.00;0.00;;;;;7.13;68.74;99406.75;5006736;28;45322;-61
2021/12/08 02:58:03;;;;;;;;;0.00;0.00;;;;;7.14;68.83;99405.81;5021493;28;45248;-62
2021/12/08 03:00:32;;;;;;;;;2.00;0.00;;;;;7.13;68.76;99414.59;5020862;28;45453;-61
2021/12/08 03:03:01;;;;;;;;;0.50;0.50;;;;;7.10;69.15;99414.78;5021011;28;45312;-61
2021/12/08 03:05:28;;;;;;;;;3.00;0.00;;;;;7.12;68.67;99405.06;5020989;28;45227;-61
2021/12/08 03:07:53;;;;;;;;;0.00;0.00;;;;;7.10;68.59;99391.22;5021071;28;45577;-61
2021/12/08 03:10:26;;;;;;;;;5.00;0.00;;;;;7.11;68.70;99388.53;5020810;28;45589;-61
2021/12/08 03:12:51;;;;;;;;;3.00;1.00;;;;;7.09;68.96;99398.25;5020819;28;45213;-61
2021/12/08 03:15:17;;;;;;;;;0.00;0.00;;;;;7.08;68.35;99393.94;5020846;28;45586;-61
2021/12/08 03:17:43;;;;;;;;;1.00;0.00;;;;;7.07;68.65;99388.81;5021016;28;45385;-62
2021/12/08 03:20:14;;;;;;;;;0.00;0.00;;;;;7.06;68.67;99395.00;5020754;28;45439;-61
2021/12/08 03:22:45;;;;;;;;;1.75;0.00;;;;;7.05;68.77;99386.31;5020609;28;45275;-61
2021/12/08 03:25:14;;;;;;;;;3.00;0.00;;;;;7.04;68.40;99383.81;5020849;28;45387;-61
2021/12/08 03:27:49;;;;;;;;;1.50;0.00;;;;;7.03;68.09;99387.34;5020556;28;45513;-61
2021/12/08 03:30:19;;;;;;;;;1.00;0.00;;;;;7.03;68.06;99387.34;5020628;28;45526;-61
2021/12/08 03:32:45;;;;;;;;;0.00;0.00;;;;;7.02;68.47;99376.03;5020260;28;45722;-61
2021/12/08 03:35:14;;;;;;;;;0.50;0.00;;;;;7.02;68.00;99367.34;5020643;28;45494;-61
2021/12/08 03:37:42;;;;;;;;;5.25;0.00;;;;;7.02;68.54;99362.94;5020731;28;45415;-61
2021/12/08 03:40:12;;;;;;;;;1.00;0.00;;;;;7.00;68.48;99349.94;5020316;28;46078;-61
2021/12/08 03:42:39;;;;;;;;;0.00;0.00;;;;;6.99;68.01;99360.53;5019874;28;45366;-61
2021/12/08 03:45:10;;;;;;;;;2.25;0.50;;;;;6.97;68.43;99370.28;5020373;28;45166;-60
2021/12/08 03:47:40;;;;;;;;;0.00;0.00;;;;;6.97;68.63;99372.91;5007171;28;45412;-61
2021/12/08 03:50:09;;;;;;;;;0.75;0.75;;;;;6.95;68.42;99367.75;5020112;28;46924;-60
2021/12/08 03:52:37;;;;;;;;;0.50;0.00;;;;;6.96;68.31;99371.22;5019629;28;45312;-61
2021/12/08 03:55:04;;;;;;;;;0.00;0.00;;;;;6.95;68.21;99361.66;5020367;28;45323;-61
2021/12/08 03:57:29;;;;;;;;;0.00;0.00;;;;;6.93;68.42;99358.31;5020332;28;45558;-61
2021/12/08 03:59:55;;;;;;;;;1.50;0.00;;;;;6.91;68.47;99373.28;5022230;28;45214;-61
2021/12/08 04:02:20;;;;;;;;;2.00;0.00;;;;;6.89;68.09;99375.19;5023557;28;45221;-61
2021/12/08 04:04:49;;;;;;;;;1.00;0.00;;;;;6.90;68.25;99374.25;5023782;28;45170;-61
2021/12/08 04:07:17;;;;;;;;;0.00;0.00;;;;;6.89;68.22;99369.94;5023940;28;45522;-60
2021/12/08 04:09:47;;;;;;;;;0.00;0.00;;;;;6.88;68.10;99366.50;5023594;28;45399;-61
2021/12/08 04:12:16;;;;;;;;;0.00;0.00;;;;;6.88;68.38;99370.88;5023635;28;45360;-61
2021/12/08 04:14:47;;;;;;;;;0.00;0.00;;;;;6.86;68.47;99368.34;5023420;28;45576;-61
2021/12/08 04:17:20;;;;;;;;;0.00;0.00;;;;;6.85;68.79;99364.06;5023600;28;45372;-60
2021/12/08 04:19:47;;;;;;;;;1.00;0.00;;;;;6.84;68.73;99362.38;5023222;28;45393;-61
2021/12/08 04:22:18;;;;;;;;;1.25;0.00;;;;;6.83;68.57;99352.03;5023116;28;45355;-62
2021/12/08 04:24:48;;;;;;;;;0.25;0.00;;;;;6.81;68.89;99373.06;5023374;28;45237;-62
2021/12/08 04:27:19;;;;;;;;;1.50;0.50;;;;;6.81;68.68;99365.22;5023208;28;45430;-62
2021/12/08 04:29:46;;;;;;;;;1.00;1.00;;;;;6.79;68.64;99361.84;5023349;28;46176;-61
2021/12/08 04:32:15;;;;;;;;;0.00;0.00;;;;;6.80;68.89;99376.63;5023099;28;45291;-63
2021/12/08 04:34:45;;;;;;;;;2.00;0.00;;;;;6.78;68.73;99394.19;5023122;28;45319;-61
2021/12/08 04:37:22;;;;;;;;;5.75;0.00;;;;;6.76;68.96;99375.13;5023235;28;45630;-61
2021/12/08 04:40:11;;;;;;;;;0.00;0.00;;;;;6.76;68.48;99367.28;5023036;28;45287;-62
2021/12/08 04:42:56;;;;;;;;;3.50;0.00;;;;;6.77;68.66;99368.94;5022872;28;45444;-62
2021/12/08 04:45:33;;;;;;;;;1.50;0.00;;;;;6.75;69.08;99352.53;5022943;28;45314;-62
2021/12/08 05:01:30;;;;;;;;;0.00;0.00;;;;;6.77;68.99;99386.44;5022788;28;45298;-61
2021/12/08 05:06:44;;;;;;;;;6.00;0.00;;;;;6.73;68.69;99388.44;5023026;28;45260;-61
2021/12/08 05:09:32;;;;;;;;;1.50;0.00;;;;;6.68;68.26;99391.34;5023122;28;45366;-62
2021/12/08 05:12:08;;;;;;;;;1.50;0.00;;;;;6.70;68.66;99399.06;5022415;28;46491;-61
2021/12/08 05:14:42;;;;;;;;;2.00;0.25;;;;;6.67;69.40;99388.81;5022425;28;45481;-61
2021/12/08 05:17:16;;;;;;;;;0.00;0.00;;;;;6.66;68.80;99402.84;5022444;28;45189;-61
2021/12/08 05:19:43;;;;;;;;;5.25;0.50;;;;;6.65;68.88;99414.25;5022456;28;45427;-59
2021/12/08 05:22:17;;;;;;;;;2.00;0.00;;;;;6.61;69.61;99412.75;5022460;28;45442;-61
2021/12/08 05:24:47;;;;;;;;;1.00;0.00;;;;;6.62;69.15;99409.19;5022488;28;45450;-61
2021/12/08 05:27:26;;;;;;;;;3.00;0.00;;;;;6.61;69.66;99404.91;5022450;28;45469;-61
2021/12/08 05:29:57;;;;;;;;;3.00;1.00;;;;;6.60;69.50;99403.22;5022632;28;45498;-61
2021/12/08 05:32:24;;;;;;;;;2.00;0.25;;;;;6.58;69.04;99403.34;5022255;28;45331;-61
2021/12/08 05:34:50;;;;;;;;;5.50;0.00;;;;;6.58;69.49;99420.81;5022126;28;45281;-61
2021/12/08 05:37:18;;;;;;;;;0.25;0.00;;;;;6.57;69.89;99422.59;5022416;28;45360;-62
2021/12/08 05:39:44;;;;;;;;;0.75;0.00;;;;;6.56;69.82;99425.31;5022376;28;45323;-61
2021/12/08 05:42:14;;;;;;;;;2.25;1.00;;;;;6.55;69.47;99418.38;5021801;28;45338;-62
2021/12/08 05:44:40;;;;;;;;;0.00;0.00;;;;;6.54;69.63;99421.94;5022045;28;45328;-61
2021/12/08 05:47:12;;;;;;;;;2.50;1.00;;;;;6.51;69.66;99420.34;5020791;28;45716;-61
2021/12/08 05:49:38;;;;;;;;;0.25;0.00;;;;;6.50;69.25;99421.31;5020529;28;45308;-61
2021/12/08 05:52:04;;;;;;;;;4.50;2.75;;;;;6.49;69.60;99411.78;5021464;28;45269;-62
2021/12/08 05:54:34;;;;;;;;;2.00;1.00;;;;;6.49;69.16;99418.78;5021422;28;45277;-62
2021/12/08 05:57:21;;;;;;;;;0.00;0.00;;;;;6.48;69.87;99422.31;5021807;28;45380;-62
2021/12/08 05:59:49;;;;;;;;;2.25;0.00;;;;;6.46;69.65;99421.56;5021962;28;45318;-62
2021/12/08 06:02:17;;;;;;;;;3.00;0.75;;;;;6.44;69.99;99411.22;5021778;28;45293;-62
2021/12/08 06:04:45;;;;;;;;;1.00;0.00;;;;;6.43;70.11;99413.00;5021648;28;45312;-62
2021/12/08 06:07:13;;;;;;;;;4.50;1.00;;;;;6.42;70.22;99397.41;5021840;28;45411;-61
2021/12/08 06:09:39;;;;;;;;;5.00;1.00;;;;;6.41;70.11;99400.97;5021795;28;45529;-61
2021/12/08 06:12:08;;;;;;;;;2.00;0.00;;;;;6.37;69.80;99415.16;5021546;28;45315;-61
2021/12/08 06:14:36;;;;;;;;;2.00;0.00;;;;;6.35;70.29;99410.03;5021420;28;45316;-61
2021/12/08 06:17:07;;;;;;;;;5.25;0.75;;;;;6.31;70.26;99403.28;5021657;28;45365;-61
2021/12/08 06:19:34;;;;;;;;;1.50;0.00;;;;;6.32;69.98;99402.38;5021596;28;45531;-61
2021/12/08 06:22:00;;;;;;;;;2.25;0.00;;;;;6.31;69.81;99395.44;5020919;28;45407;-61
2021/12/08 06:24:25;;;;;;;;;0.00;0.00;;;;;6.31;69.43;99405.91;5021369;28;45434;-60
2021/12/08 06:26:52;;;;;;;;;0.75;0.00;;;;;6.31;70.00;99410.31;5021304;28;45384;-60
2021/12/08 06:29:19;;;;;;;;;58.75;42.75;;;;;6.32;69.88;99407.63;5021566;28;45372;-61
2021/12/08 06:31:47;;;;;;;;;2.75;0.75;;;;;6.31;70.08;99412.91;5021374;28;45395;-60
2021/12/08 06:34:13;;;;;;;;;1.00;0.00;;;;;6.29;69.64;99431.31;5021167;28;45236;-61
2021/12/08 06:36:51;;;;;;;;;0.00;0.00;;;;;6.30;69.76;99424.31;5021354;28;46585;-61
2021/12/08 06:39:22;;;;;;;;;2.00;1.00;;;;;6.32;69.36;99430.28;5021330;28;45470;-61
2021/12/08 06:41:53;;;;;;;;;1.00;0.00;;;;;6.34;69.89;99433.66;5021041;28;45233;-60
2021/12/08 06:44:35;;;;;;;;;0.50;0.00;;;;;6.34;70.00;99454.59;5021087;28;45295;-61
2021/12/08 06:47:04;;;;;;;;;1.00;0.00;;;;;6.33;69.60;99456.38;5020724;28;45397;-61
2021/12/08 06:49:31;;;;;;;;;0.00;0.00;;;;;6.34;70.08;99444.13;5021074;28;45509;-61
2021/12/08 06:52:10;;;;;;;;;2.75;0.50;;;;;6.33;70.36;99437.22;5020748;28;45362;-61
2021/12/08 06:54:56;;;;;;;;;0.00;0.00;;;;;6.31;70.21;99426.84;5020526;28;45292;-61
2021/12/08 06:57:33;;;;;;;;;1.50;1.00;;;;;6.29;69.24;99439.16;5021006;28;45332;-61
2021/12/08 07:00:14;;;;;;;;;1.00;0.00;;;;;6.30;69.78;99437.41;5020997;28;45453;-61
2021/12/08 07:05:23;;;;;;;;;1.50;0.00;;;;;6.30;69.78;99437.41;5020793;28;45487;-62
2021/12/08 07:07:49;;;;;;;;;0.50;0.00;;;;;6.29;70.27;99431.31;5020577;28;45362;-61
2021/12/08 07:10:21;;;;;;;;;0.00;0.00;;;;;6.28;69.85;99436.66;5020954;28;45344;-61
2021/12/08 07:12:52;;;;;;;;;0.50;0.00;;;;;6.26;70.25;99451.59;5020614;28;45334;-61
2021/12/08 07:15:31;;;;;;;;;1.25;0.00;;;;;6.26;70.16;99452.44;5020762;28;45237;-61
2021/12/08 07:18:01;;;;;;;;;2.25;0.00;;;;;6.26;70.17;99456.84;5020534;28;45277;-61
2021/12/08 07:20:43;;;;;;;;;4.00;1.00;;;;;6.26;69.87;99462.91;5020711;28;45542;-61
2021/12/08 07:23:18;;;;;;;;;1.75;0.00;;;;;6.27;69.96;99471.59;5020616;28;46090;-61
2021/12/08 07:25:44;;;;;;;;;2.00;0.50;;;;;6.28;69.86;99478.50;5020332;28;45553;-61
2021/12/08 07:28:12;;;;;;;;;3.50;0.25;;;;;6.29;70.09;99465.31;5020654;28;45407;-61
2021/12/08 07:30:44;;;;;;;;;2.75;0.00;;;;;6.29;70.56;99459.25;5020398;28;45395;-61
2021/12/08 07:33:09;;;;;;;;;1.75;0.00;;;;;6.27;70.42;99469.81;5020361;28;46221;-61
2021/12/08 07:35:42;;;;;;;;;11.50;6.50;;;;;6.29;70.55;99481.00;5038550;28;45364;-61
2021/12/08 07:38:13;;;;;;;;;3.75;1.25;;;;;6.28;70.14;99481.13;5023852;28;45257;-61
2021/12/08 07:40:45;;;;;;;;;3.50;1.00;;;;;6.29;69.95;99475.78;5023696;28;45322;-61
2021/12/08 07:43:15;;;;;;;;;4.50;1.00;;;;;6.31;70.29;99497.44;5023790;28;45386;-62
2021/12/08 07:45:52;;;;;;;;;0.25;0.25;;;;;6.34;69.84;99497.28;5023723;28;45291;-61
2021/12/08 07:48:25;;;;;;;;;14.25;7.75;;;;;6.38;70.66;99513.59;5017642;28;45593;-61
2021/12/08 07:50:55;;;;;;;;;2.00;0.00;;;;;6.40;69.88;99525.66;5014780;28;45324;-61
2021/12/08 07:53:24;;;;;;;;;1.50;0.25;;;;;6.41;70.04;99514.28;5017705;28;46160;-61
2021/12/08 07:55:54;;;;;;;;;0.75;0.75;;;;;6.43;69.92;99522.03;5011136;28;45300;-61
2021/12/08 07:58:21;;;;;;;;;1.00;1.00;;;;;6.44;70.02;99516.69;5021117;28;45663;-60
2021/12/08 08:00:54;;;;;;;;;2.50;1.50;;;;;6.46;69.50;99508.75;5010313;28;45356;-62
2021/12/08 08:03:22;;;;;;;;;1.00;1.00;;;;;6.46;70.32;99513.97;5002297;28;46145;-61
2021/12/08 08:05:51;;;;;;;;;6.00;1.00;;;;;6.46;69.95;99506.13;5015065;28;45506;-62
2021/12/08 08:08:18;;;;;;;;;0.75;0.75;;;;;6.46;70.17;99500.06;5016081;28;45507;-61
2021/12/08 08:10:48;;;;;;;;;1.50;0.50;;;;;6.46;69.90;99494.81;5020646;28;45637;-61
2021/12/08 08:13:17;;;;;;;;;3.25;0.00;;;;;6.45;70.19;99496.59;5022020;28;45384;-62
2021/12/08 08:15:47;;;;;;;;;6.75;1.75;;;;;6.46;69.92;99497.44;5017409;28;45369;-62
2021/12/08 08:18:18;;;;;;;;;4.00;1.25;;;;;6.45;70.08;99488.75;5005347;28;45367;-65
2021/12/08 08:20:47;;;;;;;;;2.00;0.75;;;;;6.43;70.16;99499.31;5004797;28;45441;-62
2021/12/08 08:23:15;;;;;;;;;1.00;0.00;;;;;6.43;70.11;99512.38;5012534;28;46316;-61
2021/12/08 08:25:44;;;;;;;;;1.00;1.00;;;;;6.46;70.19;99507.91;5002409;28;45243;-61
2021/12/08 08:28:11;;;;;;;;;1.50;0.00;;;;;6.48;69.89;99509.50;5002212;28;45475;-61
2021/12/08 08:30:53;;;;;;;;;2.50;1.50;;;;;6.50;70.18;99518.09;5007640;28;45303;-61
2021/12/08 08:33:19;;;;;;;;;5.75;1.50;;;;;6.51;70.39;99525.00;5019798;28;46231;-61
2021/12/08 08:35:53;;;;;;;;;13.50;9.75;;;;;6.56;70.22;99537.81;5033430;28;45710;-63
2021/12/08 08:38:29;;;;;;;;;3.00;1.00;;;;;6.59;69.69;99545.47;5028395;28;45481;-64
2021/12/08 08:41:05;;;;;;;;;1.25;0.75;;;;;6.62;70.04;99543.47;5031364;28;45319;-65
2021/12/08 08:43:31;;;;;;;;;1.00;1.00;;;;;6.65;69.97;99537.22;5021473;28;46247;-60
2021/12/08 08:46:08;;;;;;;;;8.75;0.25;;;;;6.68;69.95;99530.00;5030459;28;45339;-61
2021/12/08 08:48:41;;;;;;;;;1.00;1.00;;;;;6.70;69.57;99528.13;4970404;28;1296774;-61
2021/12/08 08:51:14;;;;;;;;;4.50;1.00;;;;;6.71;69.81;99535.06;5019927;28;45516;-61
2021/12/08 08:53:42;;;;;;;;;2.00;0.00;;;;;6.74;69.66;99533.19;5019552;28;45529;-62
2021/12/08 08:56:13;;;;;;;;;2.00;0.25;;;;;6.74;69.21;99534.03;5022149;28;45304;-65
2021/12/08 08:58:43;;;;;;;;;3.00;1.00;;;;;6.76;69.15;99529.53;5020095;28;45292;-60
2021/12/08 09:01:13;;;;;;;;;2.00;1.50;;;;;6.77;68.84;99538.22;5022927;28;45386;-61
2021/12/08 09:03:45;;;;;;;;;1.50;0.00;;;;;6.79;69.64;99529.34;5023227;28;46091;-61
2021/12/08 09:06:17;;;;;;;;;1.75;0.25;;;;;6.81;69.15;99524.03;5028848;28;45385;-61
2021/12/08 09:09:08;;;;;;;;;2.75;1.00;;;;;6.84;69.13;99524.66;5022880;28;45845;-63
2021/12/08 09:11:39;;;;;;;;;0.00;0.00;;;;;6.87;68.89;99532.34;5016038;28;45708;-61
2021/12/08 09:14:23;;;;;;;;;0.00;0.00;;;;;6.88;68.75;99541.88;5016891;28;45405;-60
2021/12/08 09:16:57;;;;;;;;;1.00;0.00;;;;;6.91;68.57;99546.06;5022841;28;45458;-59
2021/12/08 09:19:32;;;;;;;;;1.50;0.25;;;;;6.95;68.53;99561.50;5021331;28;45390;-59
2021/12/08 09:22:11;;;;;;;;;2.00;1.00;;;;;6.99;68.94;99562.97;5018127;28;45363;-59
2021/12/08 09:24:47;;;;;;;;;2.50;0.50;;;;;7.06;68.54;99563.41;5017685;28;45423;-59
2021/12/08 09:27:23;;;;;;;;;1.00;1.00;;;;;7.10;68.43;99564.03;5031178;28;45412;-59
2021/12/08 09:29:56;;;;;;;;;0.25;0.25;;;;;7.16;68.20;99566.28;5027988;28;45510;-59
2021/12/08 09:32:47;;;;;;;;;7.50;0.75;;;;;7.23;68.37;99564.94;5030930;28;45459;-59
2021/12/08 09:35:25;;;;;;;;;0.00;0.00;;;;;7.22;67.80;99571.97;5033746;28;45449;-60
2021/12/08 09:37:57;;;;;;;;;3.00;1.00;;;;;7.21;68.21;99569.47;5029828;28;45464;-59
2021/12/08 09:40:29;;;;;;;;;6.00;0.00;;;;;7.21;67.67;99574.69;5033000;28;45370;-59
2021/12/08 09:43:01;;;;;;;;;1.00;1.00;;;;;7.20;67.67;99579.09;5030994;28;45707;-59
2021/12/08 09:45:41;;;;;;;;;9.25;0.00;;;;;7.19;67.78;99595.75;5031551;28;46243;-61
2021/12/08 09:48:08;;;;;;;;;1.00;1.00;;;;;7.22;67.95;99592.09;5033459;28;45370;-59
2021/12/08 09:50:35;;;;;;;;;2.00;1.00;;;;;7.25;67.88;99584.03;5015232;28;45276;-59
2021/12/08 09:53:01;;;;;;;;;0.75;0.25;;;;;7.24;68.06;99580.56;5023893;28;45493;-61
2021/12/08 09:55:27;;;;;;;;;1.00;1.00;;;;;7.26;67.78;99575.22;5027504;28;46319;-60
2021/12/08 09:57:53;;;;;;;;;2.50;0.00;;;;;7.28;67.32;99576.81;5030791;28;45210;-60
2021/12/08 10:00:24;;;;;;;;;2.00;0.50;;;;;7.30;67.27;99571.47;5029711;28;45408;-60
2021/12/08 10:02:54;;;;;;;;;0.00;0.00;;;;;7.32;67.42;99571.38;5032676;28;46714;-61
2021/12/08 10:05:20;;;;;;;;;2.00;1.00;;;;;7.35;66.89;99561.56;5030552;28;46531;-60
2021/12/08 10:07:46;;;;;;;;;1.00;0.50;;;;;7.37;67.31;99558.84;5029842;28;45316;-62
2021/12/08 10:10:14;;;;;;;;;2.75;1.00;;;;;7.43;67.42;99556.66;5031164;28;45331;-61
2021/12/08 10:12:40;;;;;;;;;1.00;1.00;;;;;7.48;67.31;99557.19;5032731;28;45569;-61
2021/12/08 10:15:09;;;;;;;;;2.00;0.50;;;;;7.53;67.08;99551.66;5027415;28;45570;-61
2021/12/08 10:17:35;;;;;;;;;9.50;9.00;;;;;7.59;67.29;99547.78;5033052;28;45327;-59
2021/12/08 10:20:07;;;;;;;;;6.25;3.00;;;;;7.64;66.75;99546.53;5033522;28;45271;-62
2021/12/08 10:22:32;;;;;;;;;0.00;0.00;;;;;7.69;66.76;99546.25;5031930;28;45418;-63
2021/12/08 10:25:15;;;;;;;;;1.75;0.50;;;;;7.70;66.43;99543.50;5031571;28;46039;-60
2021/12/08 10:28:17;;;;;;;;;0.00;0.00;;;;;7.74;66.20;99552.00;5034755;28;45464;-57
2021/12/08 10:31:11;;;;;;;;;1.00;0.00;;;;;7.77;66.23;99542.16;5031050;28;45376;-58
2021/12/08 10:34:29;;;;;;;;;3.00;0.00;;;;;7.80;66.31;99533.25;5031246;28;45327;-58
2021/12/08 10:36:45;;;;;;;;;2.00;1.00;;;;;7.83;65.99;99547.00;5027924;28;45882;-57
2021/12/08 10:39:16;;;;;;;;;4.00;1.00;;;;;7.85;65.84;99536.41;5032409;28;45462;-56
2021/12/08 10:41:48;;;;;;;;;5.75;1.00;;;;;7.88;65.86;99546.69;5028069;28;45288;-57
2021/12/08 10:44:15;;;;;;;;;1.50;0.00;;;;;7.94;65.58;99541.03;5031403;28;45605;-55
2021/12/08 10:46:41;;;;;;;;;0.00;0.00;;;;;7.98;65.47;99550.38;5034574;28;45450;-55
2021/12/08 10:54:22;;;;;;;;;1.25;1.00;;;;;7.98;65.04;99545.13;5030071;28;45386;-56
2021/12/08 10:54:51;;;;;;;;;0.50;0.50;;;;;7.99;64.85;99531.06;5032175;28;46401;-63
2021/12/08 10:57:37;;;;;;;;;0.50;0.00;;;;;8.00;64.92;99535.38;5015635;28;45217;-56
2021/12/08 11:00:12;;;;;;;;;1.00;0.00;;;;;7.97;64.53;99537.34;5027365;28;45671;-53
2021/12/08 11:02:46;;;;;;;;;6.50;1.00;;;;;7.96;64.68;99546.16;5028786;28;45466;-55
2021/12/08 11:05:24;;;;;;;;;1.25;0.00;;;;;7.92;64.36;99545.53;5028864;28;45402;-53
2021/12/08 11:08:11;;;;;;;;;2.00;1.00;;;;;7.93;64.06;99543.75;5031091;28;46124;-55
2021/12/08 11:11:11;;;;;;;;;1.50;1.00;;;;;7.98;64.46;99541.66;5027899;28;45427;-54
2021/12/08 11:13:42;;;;;;;;;0.00;0.00;;;;;8.04;64.34;99542.06;5028272;28;45538;-53
2021/12/08 11:16:13;;;;;;;;;1.00;0.50;;;;;8.09;64.32;99537.38;5031483;28;45410;-56
2021/12/08 11:19:01;;;;;;;;;1.00;0.00;;;;;8.13;64.14;99546.69;5031360;28;45482;-52
2021/12/08 11:21:35;;;;;;;;;2.75;2.00;;;;;8.21;64.15;99550.56;5028708;28;45448;-54
2021/12/08 11:24:03;;;;;;;;;1.00;0.25;;;;;8.26;63.93;99544.06;5030114;28;46586;-54
2021/12/08 11:26:37;;;;;;;;;1.00;1.00;;;;;8.31;63.79;99539.38;5028416;28;45588;-54
2021/12/08 11:29:08;;;;;;;;;2.25;0.00;;;;;8.36;63.44;99542.53;5029390;28;45311;-55
2021/12/08 11:31:38;;;;;;;;;0.25;0.25;;;;;8.41;63.32;99536.97;5027750;28;45427;-55
2021/12/08 11:34:10;;;;;;;;;1.50;1.25;;;;;8.45;63.54;99534.94;5027444;28;45387;-54
2021/12/08 11:36:38;;;;;;;;;3.00;2.25;;;;;8.49;63.29;99534.66;5028828;28;45331;-52
2021/12/08 11:39:27;;;;;;;;;2.50;1.00;;;;;8.52;63.42;99544.09;5024913;28;46351;-54
2021/12/08 11:41:56;;;;;;;;;0.75;0.75;;;;;8.52;62.74;99537.03;5030426;28;45407;-55
2021/12/08 11:44:25;;;;;;;;;1.00;0.00;;;;;8.49;62.66;99532.03;5029621;28;45301;-49
2021/12/08 11:46:55;;;;;;;;;0.25;0.25;;;;;8.49;62.50;99539.06;5027946;28;45414;-53
2021/12/08 11:49:21;;;;;;;;;1.75;0.50;;;;;8.50;62.71;99536.31;5025084;28;46193;-49
2021/12/08 11:51:47;;;;;;;;;2.75;0.00;;;;;8.52;62.70;99534.41;5030551;28;45323;-50
2021/12/08 11:54:29;;;;;;;;;2.25;1.00;;;;;8.55;62.77;99534.22;5029811;28;45388;-54
2021/12/08 11:57:16;;;;;;;;;1.75;0.00;;;;;8.59;62.60;99545.34;5026156;28;45477;-52
2021/12/08 12:00:03;;;;;;;;;0.00;0.00;;;;;8.59;62.49;99540.91;5028704;28;45423;-52
2021/12/08 12:02:36;;;;;;;;;0.00;0.00;;;;;8.60;62.52;99547.00;5027736;28;45397;-55
2021/12/08 12:05:09;;;;;;;;;1.00;0.00;;;;;8.61;62.61;99549.56;5031423;28;45316;-52
2021/12/08 12:07:36;;;;;;;;;2.00;1.00;;;;;8.64;62.62;99553.72;5029807;28;45462;-55
2021/12/08 12:10:03;;;;;;;;;0.25;0.00;;;;;8.65;62.42;99561.50;5028393;28;45358;-53
2021/12/08 12:12:29;;;;;;;;;0.00;0.00;;;;;8.67;61.99;99564.84;5027834;28;45469;-53
2021/12/08 12:14:54;;;;;;;;;1.00;1.00;;;;;8.70;62.12;99566.44;5021890;28;45396;-55
2021/12/08 12:17:20;;;;;;;;;1.00;0.00;;;;;8.70;62.05;99565.59;5017570;28;45248;-55
2021/12/08 12:19:55;;;;;;;;;1.00;0.50;;;;;8.72;62.11;99568.94;5025440;28;46124;-55
2021/12/08 12:22:41;;;;;;;;;2.25;0.00;;;;;8.77;61.85;99566.81;5027834;28;45351;-58
2021/12/08 12:25:36;;;;;;;;;2.00;0.50;;;;;8.80;61.76;99567.47;5027789;28;45388;-56
2021/12/08 12:28:08;;;;;;;;;3.00;0.00;;;;;8.88;61.92;99572.16;5015740;28;45293;-55
2021/12/08 12:30:49;;;;;;;;;1.00;0.75;;;;;8.91;61.66;99572.78;5027227;28;45988;-52
2021/12/08 12:33:22;;;;;;;;;0.00;0.00;;;;;8.95;62.05;99578.66;5013842;28;45332;-55
2021/12/08 12:35:51;;;;;;;;;5.50;1.00;;;;;9.00;61.63;99583.56;5023306;28;45482;-53
2021/12/08 12:38:17;;;;;;;;;0.00;0.00;;;;;9.05;61.45;99590.19;5025950;28;45415;-53
2021/12/08 12:40:50;;;;;;;;;0.50;0.00;;;;;9.10;61.66;99593.34;5031928;28;45490;-51